createdAt,value
2023-04-03T00:00:36.306Z,97427.19
2023-04-03T00:03:02.952Z,97420.25
2023-04-03T00:05:29.453Z,97419.38
2023-04-03T00:07:56.021Z,97429.50
2023-04-03T00:10:23.346Z,97427.84
2023-04-03T00:12:49.777Z,97430.28
2023-04-03T00:15:16.334Z,97432.69
2023-04-03T00:17:42.792Z,97430.00
2023-04-03T00:20:09.620Z,97429.78
2023-04-03T00:22:36.156Z,97434.19
2023-04-03T00:25:02.607Z,97431.59
2023-04-03T00:27:30.175Z,97432.41
2023-04-03T00:29:56.697Z,97439.03
2023-04-03T00:32:23.218Z,97437.25
2023-04-03T00:34:49.727Z,97435.63
2023-04-03T00:37:16.143Z,97443.13
2023-04-03T00:39:43.012Z,97435.50
2023-04-03T00:42:09.468Z,97431.06
2023-04-03T00:44:36.011Z,97433.75
2023-04-03T00:47:06.286Z,97437.81
2023-04-03T00:49:33.024Z,97441.25
2023-04-03T00:52:00.151Z,97444.56
2023-04-03T00:54:27.147Z,97439.31
2023-04-03T00:56:55.805Z,97441.13
2023-04-03T00:59:31.285Z,97441.84
2023-04-03T01:01:57.971Z,97435.03
2023-04-03T01:04:42.674Z,97430.81
2023-04-03T01:07:19.253Z,97440.09
2023-04-03T01:09:49.268Z,97428.97
2023-04-03T01:12:28.388Z,97432.38
2023-04-03T01:14:59.657Z,97429.78
2023-04-03T01:17:28.871Z,97432.94
2023-04-03T01:20:03.900Z,97427.72
2023-04-03T01:22:51.296Z,97429.47
2023-04-03T01:25:17.839Z,97441.09
2023-04-03T01:27:44.308Z,97444.09
2023-04-03T01:30:11.630Z,97441.50
2023-04-03T01:32:38.038Z,97438.75
2023-04-03T01:35:04.932Z,97440.63
2023-04-03T01:37:31.369Z,97449.94
2023-04-03T01:39:57.824Z,97433.69
2023-04-03T01:42:24.161Z,97442.38
2023-04-03T01:44:50.794Z,97449.03
2023-04-03T01:47:17.223Z,97440.72
2023-04-03T01:49:43.673Z,97451.78
2023-04-03T01:52:10.212Z,97453.44
2023-04-03T01:54:36.661Z,97452.63
2023-04-03T01:57:03.237Z,97458.47
2023-04-03T01:59:29.680Z,97453.34
2023-04-03T02:01:56.289Z,97442.31
2023-04-03T02:04:22.865Z,97459.13
2023-04-03T02:06:49.768Z,97461.66
2023-04-03T02:09:16.215Z,97454.69
2023-04-03T02:11:42.646Z,97459.03
2023-04-03T02:14:09.094Z,97464.97
2023-04-03T02:16:35.616Z,97457.38
2023-04-03T02:19:02.137Z,97449.91
2023-04-03T02:21:28.813Z,97456.53
2023-04-03T02:23:55.437Z,97458.09
2023-04-03T02:26:22.012Z,97458.88
2023-04-03T02:28:48.867Z,97449.59
2023-04-03T02:31:15.533Z,97460.63
2023-04-03T02:33:42.106Z,97456.34
2023-04-03T02:36:09.379Z,97452.91
2023-04-03T02:38:36.657Z,97462.28
2023-04-03T02:41:13.730Z,97444.59
2023-04-03T02:43:40.096Z,97449.59
2023-04-03T02:46:07.654Z,97452.16
2023-04-03T02:48:35.263Z,97455.56
2023-04-03T02:51:02.062Z,97456.28
2023-04-03T02:53:28.486Z,97454.63
2023-04-03T02:55:54.927Z,97454.47
2023-04-03T02:58:21.485Z,97457.94
2023-04-03T03:00:48.429Z,97448.50
2023-04-03T03:03:15.898Z,97445.25
2023-04-03T03:05:42.311Z,97450.28
2023-04-03T03:08:08.749Z,97451.16
2023-04-03T03:10:35.473Z,97451.72
2023-04-03T03:13:02.198Z,97458.59
2023-04-03T03:15:28.685Z,97458.50
2023-04-03T03:17:55.410Z,97454.34
2023-04-03T03:20:22.166Z,97450.84
2023-04-03T03:22:48.555Z,97445.72
2023-04-03T03:25:15.354Z,97456.69
2023-04-03T03:27:41.883Z,97447.22
2023-04-03T03:30:08.806Z,97455.75
2023-04-03T03:32:35.324Z,97454.09
2023-04-03T03:35:01.799Z,97449.06
2023-04-03T03:37:28.630Z,97460.00
2023-04-03T03:39:55.466Z,97455.75
2023-04-03T03:42:21.908Z,97450.63
2023-04-03T03:44:48.280Z,97456.63
2023-04-03T03:47:14.665Z,97457.47
2023-04-03T03:49:41.800Z,97451.59
2023-04-03T03:52:11.380Z,97448.09
2023-04-03T03:54:38.925Z,97459.72
2023-04-03T03:57:06.113Z,97452.84
2023-04-03T03:59:32.780Z,97453.72
2023-04-03T04:01:59.232Z,97450.31
2023-04-03T04:04:25.935Z,97455.38
2023-04-03T04:06:52.771Z,97455.28
2023-04-03T04:09:19.515Z,97456.88
2023-04-03T04:11:46.029Z,97462.72
2023-04-03T04:14:14.335Z,97456.00
2023-04-03T04:16:40.967Z,97460.97
2023-04-03T04:19:08.884Z,97455.94
2023-04-03T04:21:36.140Z,97462.50
2023-04-03T04:24:02.562Z,97466.03
2023-04-03T04:26:29.063Z,97470.13
2023-04-03T04:28:55.557Z,97465.81
2023-04-03T04:31:22.078Z,97470.94
2023-04-03T04:33:48.447Z,97466.66
2023-04-03T04:36:15.861Z,97465.06
2023-04-03T04:38:42.789Z,97463.19
2023-04-03T04:41:09.255Z,97474.38
2023-04-03T04:43:35.841Z,97470.75
2023-04-03T04:46:06.784Z,97473.47
2023-04-03T04:48:34.115Z,97472.50
2023-04-03T04:51:00.654Z,97483.38
2023-04-03T04:53:27.345Z,97472.28
2023-04-03T04:55:54.074Z,97476.59
2023-04-03T04:58:20.753Z,97470.53
2023-04-03T05:00:47.694Z,97484.03
2023-04-03T05:03:14.262Z,97479.66
2023-04-03T05:05:40.820Z,97478.81
2023-04-03T05:08:09.330Z,97481.50
2023-04-03T05:10:36.041Z,97471.22
2023-04-03T05:13:02.677Z,97470.34
2023-04-03T05:15:29.122Z,97480.63
2023-04-03T05:17:55.658Z,97476.22
2023-04-03T05:20:22.199Z,97484.81
2023-04-03T05:22:48.718Z,97477.25
2023-04-03T05:25:15.199Z,97481.41
2023-04-03T05:27:41.720Z,97484.03
2023-04-03T05:30:09.236Z,97486.63
2023-04-03T05:32:35.742Z,97481.59
2023-04-03T05:35:02.523Z,97482.50
2023-04-03T05:37:29.012Z,97490.25
2023-04-03T05:39:55.675Z,97488.44
2023-04-03T05:42:22.223Z,97484.47
2023-04-03T05:44:49.673Z,97485.44
2023-04-03T05:47:16.308Z,97491.69
2023-04-03T05:49:42.884Z,97483.28
2023-04-03T05:52:31.484Z,97488.66
2023-04-03T05:54:58.098Z,97494.66
2023-04-03T05:57:25.042Z,97487.06
2023-04-03T05:59:51.452Z,97498.28
2023-04-03T06:02:21.130Z,97496.72
2023-04-03T06:04:48.784Z,97501.13
2023-04-03T06:07:17.395Z,97497.88
2023-04-03T06:09:44.137Z,97503.09
2023-04-03T06:12:12.231Z,97500.00
2023-04-03T06:14:38.617Z,97504.34
2023-04-03T06:17:05.766Z,97507.97
2023-04-03T06:19:32.773Z,97506.44
2023-04-03T06:21:59.510Z,97505.56
2023-04-03T06:24:26.202Z,97508.28
2023-04-03T06:26:53.453Z,97515.28
2023-04-03T06:29:20.732Z,97518.72
2023-04-03T06:31:47.684Z,97513.06
2023-04-03T06:34:15.052Z,97511.31
2023-04-03T06:36:41.829Z,97517.25
2023-04-03T06:39:10.376Z,97521.16
2023-04-03T06:41:37.297Z,97517.84
2023-04-03T06:44:04.453Z,97521.16
2023-04-03T06:46:31.487Z,97526.44
2023-04-03T06:48:58.014Z,97525.00
2023-04-03T06:51:27.640Z,97526.97
2023-04-03T06:53:56.649Z,97520.31
2023-04-03T06:56:23.826Z,97535.72
2023-04-03T06:58:51.695Z,97536.00
2023-04-03T07:01:20.758Z,97536.13
2023-04-03T07:03:49.042Z,97535.78
2023-04-03T07:06:17.314Z,97537.53
2023-04-03T07:08:44.678Z,97541.72
2023-04-03T07:11:12.408Z,97545.31
2023-04-03T07:13:38.886Z,97552.19
2023-04-03T07:16:06.325Z,97549.88
2023-04-03T07:18:34.240Z,97556.78
2023-04-03T07:21:01.364Z,97559.44
2023-04-03T07:23:28.331Z,97555.66
2023-04-03T07:25:55.375Z,97561.09
2023-04-03T07:28:23.533Z,97559.72
2023-04-03T07:30:52.874Z,97560.59
2023-04-03T07:33:21.474Z,97568.97
2023-04-03T07:35:48.174Z,97567.09
2023-04-03T07:38:14.624Z,97571.50
2023-04-03T07:40:41.476Z,97567.16
2023-04-03T07:43:07.858Z,97567.31
2023-04-03T07:45:37.034Z,97572.44
2023-04-03T07:48:04.081Z,97570.72
2023-04-03T07:50:33.092Z,97579.97
2023-04-03T07:52:59.859Z,97575.09
2023-04-03T07:55:26.449Z,97572.34
2023-04-03T07:57:52.903Z,97576.31
2023-04-03T08:00:20.626Z,97567.84
2023-04-03T08:02:52.467Z,97567.38
2023-04-03T08:05:20.140Z,97576.25
2023-04-03T08:07:47.519Z,97579.06
2023-04-03T08:10:15.380Z,97574.09
2023-04-03T08:12:42.320Z,97571.28
2023-04-03T08:15:09.698Z,97569.31
2023-04-03T08:17:36.673Z,97570.06
2023-04-03T08:20:05.721Z,97566.22
2023-04-03T08:22:32.169Z,97560.59
2023-04-03T08:24:59.690Z,97571.34
2023-04-03T08:27:27.920Z,97577.34
2023-04-03T08:29:54.453Z,97570.13
2023-04-03T08:32:20.966Z,97572.69
2023-04-03T08:34:47.801Z,97568.47
2023-04-03T08:37:14.192Z,97562.34
2023-04-03T08:39:40.606Z,97562.50
2023-04-03T08:42:17.940Z,97569.13
2023-04-03T08:44:57.053Z,97563.94
2023-04-03T08:47:26.298Z,97563.78
2023-04-03T08:49:57.206Z,97554.53
2023-04-03T08:52:42.928Z,97569.44
2023-04-03T08:55:26.989Z,97563.56
2023-04-03T08:58:03.464Z,97564.06
2023-04-03T09:00:47.200Z,97566.16
2023-04-03T09:03:16.037Z,97563.22
2023-04-03T09:06:17.032Z,97570.81
2023-04-03T09:09:00.283Z,97574.47
2023-04-03T09:11:36.665Z,97577.69
2023-04-03T09:14:18.897Z,97581.72
2023-04-03T09:16:59.119Z,97578.72
2023-04-03T09:19:34.572Z,97579.53
2023-04-03T09:22:10.673Z,97565.59
2023-04-03T09:24:37.930Z,97567.53
2023-04-03T09:27:11.998Z,97568.06
2023-04-03T09:29:44.335Z,97566.28
2023-04-03T09:32:22.364Z,97567.22
2023-04-03T09:34:50.758Z,97565.63
2023-04-03T09:37:43.884Z,97573.66
2023-04-03T09:40:36.117Z,97568.53
2023-04-03T09:43:19.502Z,97587.09
2023-04-03T09:45:48.233Z,97586.25
2023-04-03T09:48:20.231Z,97584.09
2023-04-03T09:51:00.304Z,97589.38
2023-04-03T09:53:41.920Z,97587.31
2023-04-03T09:56:14.476Z,97582.72
2023-04-03T09:58:50.279Z,97594.13
2023-04-03T10:01:26.189Z,97587.66
2023-04-03T10:04:12.925Z,97584.88
2023-04-03T10:06:54.118Z,97589.50
2023-04-03T10:09:26.651Z,97590.19
2023-04-03T10:12:12.937Z,97592.47
2023-04-03T10:14:56.457Z,97585.63
2023-04-03T10:17:35.693Z,97578.88
2023-04-03T10:20:19.248Z,97579.38
2023-04-03T10:23:13.516Z,97568.56
2023-04-03T10:25:48.662Z,97562.66
2023-04-03T10:28:28.614Z,97551.16
2023-04-03T10:31:14.436Z,97558.09
2023-04-03T10:34:07.015Z,97554.03
2023-04-03T10:36:36.219Z,97562.88
2023-04-03T10:39:32.843Z,97564.41
2023-04-03T10:42:31.841Z,97555.28
2023-04-03T10:45:07.936Z,97551.66
2023-04-03T10:47:53.058Z,97547.31
2023-04-03T10:50:44.658Z,97536.25
2023-04-03T10:53:45.696Z,97546.88
2023-04-03T10:56:40.086Z,97542.72
2023-04-03T10:59:09.466Z,97540.38
2023-04-03T11:01:41.430Z,97553.88
2023-04-03T11:04:11.410Z,97547.13
2023-04-03T11:06:48.616Z,97542.34
2023-04-03T11:09:28.790Z,97545.59
2023-04-03T11:12:05.061Z,97547.13
2023-04-03T11:14:38.980Z,97541.94
2023-04-03T11:17:23.707Z,97538.28
2023-04-03T11:20:07.837Z,97538.28
2023-04-03T11:23:02.955Z,97548.56
2023-04-03T11:25:33.297Z,97543.41
2023-04-03T11:28:03.017Z,97544.06
2023-04-03T11:30:53.618Z,97538.59
2023-04-03T11:33:44.831Z,97533.59
2023-04-03T11:36:28.214Z,97527.53
2023-04-03T11:39:08.665Z,97514.97
2023-04-03T11:41:35.496Z,97523.28
2023-04-03T11:44:06.590Z,97522.13
2023-04-03T11:46:54.283Z,97517.53
2023-04-03T11:50:01.659Z,97519.09
2023-04-03T11:52:44.311Z,97515.78
2023-04-03T11:55:20.312Z,97521.75
2023-04-03T11:58:03.751Z,97511.16
2023-04-03T12:00:48.567Z,97515.94
2023-04-03T12:03:24.991Z,97520.47
2023-04-03T12:05:53.572Z,97500.94
2023-04-03T12:08:44.413Z,97507.34
2023-04-03T12:11:14.212Z,97500.50
2023-04-03T12:13:42.262Z,97499.13
2023-04-03T12:16:40.149Z,97496.72
2023-04-03T12:19:15.931Z,97500.41
2023-04-03T12:21:48.994Z,97495.97
2023-04-03T12:24:18.065Z,97495.81
2023-04-03T12:26:51.791Z,97501.22
2023-04-03T12:29:33.397Z,97503.28
2023-04-03T12:32:26.841Z,97488.00
2023-04-03T12:35:03.482Z,97486.91
2023-04-03T12:38:07.278Z,97494.06
2023-04-03T12:40:42.740Z,97489.44
2023-04-03T12:43:19.020Z,97493.84
2023-04-03T12:45:52.102Z,97486.75
2023-04-03T12:48:25.560Z,97485.50
2023-04-03T12:50:52.634Z,97489.78
2023-04-03T12:53:34.033Z,97484.22
2023-04-03T12:56:21.471Z,97479.06
2023-04-03T12:58:48.192Z,97474.38
2023-04-03T13:01:19.275Z,97478.91
2023-04-03T13:03:46.646Z,97482.22
2023-04-03T13:06:20.543Z,97479.34
2023-04-03T13:08:55.189Z,97477.72
2023-04-03T13:11:23.005Z,97472.91
2023-04-03T13:13:57.794Z,97469.88
2023-04-03T13:16:24.492Z,97478.16
2023-04-03T13:18:55.536Z,97464.44
2023-04-03T13:21:27.282Z,97468.34
2023-04-03T13:24:07.184Z,97476.78
2023-04-03T13:26:41.546Z,97467.88
2023-04-03T13:29:29.809Z,97471.28
2023-04-03T13:31:58.946Z,97468.38
2023-04-03T13:34:28.748Z,97466.75
2023-04-03T13:36:58.917Z,97460.19
2023-04-03T13:39:30.698Z,97467.03
2023-04-03T13:41:59.733Z,97464.19
2023-04-03T13:44:36.349Z,97466.53
2023-04-03T13:47:08.846Z,97459.97
2023-04-03T13:49:38.503Z,97456.69
2023-04-03T13:52:25.891Z,97461.53
2023-04-03T13:54:55.537Z,97456.09
2023-04-03T13:57:22.716Z,97459.22
2023-04-03T13:59:50.786Z,97468.75
2023-04-03T14:02:31.927Z,97466.41
2023-04-03T14:05:02.377Z,97466.84
2023-04-03T14:07:31.883Z,97461.88
2023-04-03T14:09:58.393Z,97459.56
2023-04-03T14:12:32.676Z,97465.78
2023-04-03T14:15:01.969Z,97464.84
2023-04-03T14:17:29.468Z,97453.69
2023-04-03T14:19:57.922Z,97462.00
2023-04-03T14:22:31.149Z,97462.31
2023-04-03T14:24:58.309Z,97462.13
2023-04-03T14:27:30.681Z,97454.94
2023-04-03T14:29:59.239Z,97445.91
2023-04-03T14:32:27.071Z,97444.88
2023-04-03T14:34:54.216Z,97453.28
2023-04-03T14:37:28.727Z,97454.72
2023-04-03T14:39:58.115Z,97458.81
2023-04-03T14:42:31.748Z,97448.78
2023-04-03T14:44:59.294Z,97449.03
2023-04-03T14:47:31.884Z,97446.53
2023-04-03T14:50:00.920Z,97453.00
2023-04-03T14:52:31.556Z,97454.13
2023-04-03T14:54:58.850Z,97451.19
2023-04-03T14:57:27.499Z,97455.75
2023-04-03T14:59:54.078Z,97451.69
2023-04-03T15:02:34.563Z,97446.91
2023-04-03T15:05:04.925Z,97458.91
2023-04-03T15:07:41.372Z,97458.16
2023-04-03T15:10:26.576Z,97458.63
2023-04-03T15:12:53.709Z,97469.47
2023-04-03T15:15:22.039Z,97473.72
2023-04-03T15:17:54.737Z,97470.94
2023-04-03T15:20:25.306Z,97469.63
2023-04-03T15:22:52.174Z,97473.28
2023-04-03T15:25:19.140Z,97468.53
2023-04-03T15:27:45.952Z,97475.84
2023-04-03T15:30:17.804Z,97474.25
2023-04-03T15:32:44.539Z,97470.59
2023-04-03T15:35:11.445Z,97474.84
2023-04-03T15:37:37.932Z,97470.28
2023-04-03T15:40:06.229Z,97470.28
2023-04-03T15:42:32.877Z,97471.84
2023-04-03T15:44:59.580Z,97481.13
2023-04-03T15:47:27.343Z,97483.47
2023-04-03T15:49:55.445Z,97486.91
2023-04-03T15:52:21.876Z,97484.00
2023-04-03T15:54:48.417Z,97487.34
2023-04-03T15:57:15.017Z,97481.91
2023-04-03T15:59:41.513Z,97484.38
2023-04-03T16:02:11.176Z,97485.53
2023-04-03T16:04:37.772Z,97492.50
2023-04-03T16:07:05.032Z,97490.34
2023-04-03T16:09:33.713Z,97488.78
2023-04-03T16:12:01.389Z,97487.00
2023-04-03T16:14:31.185Z,97493.59
2023-04-03T16:16:59.886Z,97500.47
2023-04-03T16:19:26.508Z,97498.56
2023-04-03T16:21:55.017Z,97491.03
2023-04-03T16:24:21.458Z,97502.41
2023-04-03T16:26:47.858Z,97509.88
2023-04-03T16:29:14.358Z,97502.66
2023-04-03T16:31:41.030Z,97511.59
2023-04-03T16:34:07.537Z,97508.72
2023-04-03T16:36:34.051Z,97509.50
2023-04-03T16:39:00.412Z,97515.13
2023-04-03T16:41:26.943Z,97516.94
2023-04-03T16:43:53.393Z,97524.28
2023-04-03T16:46:19.943Z,97515.56
2023-04-03T16:48:46.659Z,97521.50
2023-04-03T16:51:14.183Z,97539.78
2023-04-03T16:53:40.662Z,97537.84
2023-04-03T16:56:07.109Z,97544.25
2023-04-03T16:58:33.592Z,97544.34
2023-04-03T17:01:00.044Z,97549.47
2023-04-03T17:03:27.088Z,97544.88
2023-04-03T17:05:53.700Z,97550.41
2023-04-03T17:08:20.192Z,97553.97
2023-04-03T17:10:46.770Z,97561.22
2023-04-03T17:13:13.270Z,97565.84
2023-04-03T17:15:40.177Z,97567.75
2023-04-03T17:18:08.075Z,97567.38
2023-04-03T17:20:34.668Z,97572.09
2023-04-03T17:23:01.317Z,97580.75
2023-04-03T17:25:28.125Z,97581.25
2023-04-03T17:27:54.776Z,97569.19
2023-04-03T17:30:21.295Z,97583.88
2023-04-03T17:32:47.823Z,97587.75
2023-04-03T17:35:14.411Z,97588.44
2023-04-03T17:37:41.184Z,97575.34
2023-04-03T17:40:08.242Z,97585.38
2023-04-03T17:42:34.786Z,97590.28
2023-04-03T17:45:01.292Z,97596.56
2023-04-03T17:47:27.935Z,97601.25
2023-04-03T17:49:54.505Z,97597.06
2023-04-03T17:52:24.045Z,97595.75
2023-04-03T17:54:50.501Z,97594.56
2023-04-03T17:57:17.008Z,97595.31
2023-04-03T17:59:43.458Z,97603.47
2023-04-03T18:02:09.898Z,97606.56
2023-04-03T18:04:36.390Z,97605.81
2023-04-03T18:07:03.476Z,97604.09
2023-04-03T18:09:33.304Z,97602.94
2023-04-03T18:12:04.166Z,97610.34
2023-04-03T18:14:32.561Z,97611.69
2023-04-03T18:16:59.288Z,97607.94
2023-04-03T18:19:29.015Z,97612.66
2023-04-03T18:22:00.412Z,97612.16
2023-04-03T18:24:27.116Z,97614.56
2023-04-03T18:26:59.575Z,97615.25
2023-04-03T18:29:29.715Z,97619.97
2023-04-03T18:31:57.113Z,97617.94
2023-04-03T18:34:23.652Z,97618.72
2023-04-03T18:36:50.638Z,97616.28
2023-04-03T18:39:17.096Z,97620.31
2023-04-03T18:41:43.617Z,97617.41
2023-04-03T18:44:14.757Z,97620.69
2023-04-03T18:46:41.505Z,97618.53
2023-04-03T18:49:09.986Z,97615.88
2023-04-03T18:51:39.177Z,97627.53
2023-04-03T18:54:06.674Z,97635.88
2023-04-03T18:56:33.029Z,97629.03
2023-04-03T18:58:59.455Z,97625.72
2023-04-03T19:01:26.111Z,97634.00
2023-04-03T19:03:52.757Z,97633.84
2023-04-03T19:06:19.726Z,97632.78
2023-04-03T19:08:47.008Z,97638.47
2023-04-03T19:11:13.476Z,97638.31
2023-04-03T19:13:47.024Z,97637.34
2023-04-03T19:16:26.512Z,97634.72
2023-04-03T19:18:53.007Z,97635.59
2023-04-03T19:21:19.643Z,97636.91
2023-04-03T19:23:46.346Z,97634.16
2023-04-03T19:26:13.527Z,97634.88
2023-04-03T19:28:41.562Z,97620.28
2023-04-03T19:31:16.672Z,97635.47
2023-04-03T19:33:44.069Z,97640.69
2023-04-03T19:36:11.510Z,97649.16
2023-04-03T19:38:38.866Z,97638.94
2023-04-03T19:41:11.993Z,97636.69
2023-04-03T19:43:39.494Z,97638.31
2023-04-03T19:46:07.256Z,97641.09
2023-04-03T19:48:35.472Z,97633.47
2023-04-03T19:51:02.156Z,97639.63
2023-04-03T19:53:31.161Z,97638.84
2023-04-03T19:55:58.420Z,97639.63
2023-04-03T19:58:27.721Z,97637.88
2023-04-03T20:00:55.283Z,97636.78
2023-04-03T20:03:22.787Z,97639.19
2023-04-03T20:05:49.256Z,97649.81
2023-04-03T20:08:16.090Z,97648.81
2023-04-03T20:10:42.912Z,97642.88
2023-04-03T20:13:11.134Z,97647.06
2023-04-03T20:15:41.648Z,97645.31
2023-04-03T20:18:10.083Z,97645.31
2023-04-03T20:20:41.936Z,97631.47
2023-04-03T20:23:11.144Z,97639.41
2023-04-03T20:25:48.524Z,97647.94
2023-04-03T20:28:24.896Z,97641.13
2023-04-03T20:30:54.426Z,97636.88
2023-04-03T20:33:26.277Z,97636.09
2023-04-03T20:35:54.271Z,97630.88
2023-04-03T20:38:21.473Z,97644.34
2023-04-03T20:40:48.800Z,97648.56
2023-04-03T20:43:17.045Z,97638.38
2023-04-03T20:45:43.912Z,97639.25
2023-04-03T20:48:13.091Z,97645.84
2023-04-03T20:50:41.595Z,97636.28
2023-04-03T20:53:08.249Z,97639.91
2023-04-03T20:55:35.086Z,97629.94
2023-04-03T20:58:02.065Z,97633.31
2023-04-03T21:00:32.183Z,97633.22
2023-04-03T21:02:59.593Z,97631.41
2023-04-03T21:05:28.543Z,97631.47
2023-04-03T21:08:33.286Z,97628.38
2023-04-03T21:11:37.160Z,97629.22
2023-04-03T21:14:42.406Z,97634.09
2023-04-03T21:17:08.937Z,97632.34
2023-04-03T21:19:40.168Z,97628.28
2023-04-03T21:22:06.804Z,97627.50
2023-04-03T21:24:33.286Z,97629.16
2023-04-03T21:26:59.894Z,97628.38
2023-04-03T21:29:26.315Z,97619.75
2023-04-03T21:31:56.863Z,97623.13
2023-04-03T21:34:28.524Z,97632.59
2023-04-03T21:36:57.026Z,97630.81
2023-04-03T21:39:23.740Z,97629.16
2023-04-03T21:41:51.607Z,97629.84
2023-04-03T21:44:19.158Z,97631.56
2023-04-03T21:46:49.700Z,97625.41
2023-04-03T21:49:16.344Z,97636.53
2023-04-03T21:51:42.892Z,97631.41
2023-04-03T21:54:09.350Z,97630.59
2023-04-03T21:56:36.180Z,97631.56
2023-04-03T21:59:03.315Z,97634.88
2023-04-03T22:01:30.342Z,97622.16
2023-04-03T22:03:58.880Z,97627.06
2023-04-03T22:06:26.142Z,97622.09
2023-04-03T22:08:52.891Z,97623.75
2023-04-03T22:11:19.433Z,97622.97
2023-04-03T22:13:45.868Z,97622.69
2023-04-03T22:16:12.722Z,97627.94
2023-04-03T22:18:39.335Z,97618.72
2023-04-03T22:21:09.073Z,97622.00
2023-04-03T22:23:35.974Z,97621.06
2023-04-03T22:26:12.417Z,97617.66
2023-04-03T22:28:44.177Z,97621.06
2023-04-03T22:31:13.405Z,97615.94
2023-04-03T22:33:41.845Z,97624.19
2023-04-03T22:36:10.114Z,97618.38
2023-04-03T22:38:37.369Z,97616.63
2023-04-03T22:41:06.180Z,97615.84
2023-04-03T22:43:34.445Z,97622.44
2023-04-03T22:46:02.630Z,97616.38
2023-04-03T22:48:29.470Z,97620.66
2023-04-03T22:50:56.430Z,97618.91
2023-04-03T22:53:23.074Z,97621.44
2023-04-03T22:56:01.066Z,97606.38
2023-04-03T22:58:28.751Z,97609.59
2023-04-03T23:01:03.541Z,97607.59
2023-04-03T23:03:30.058Z,97613.31
2023-04-03T23:05:57.411Z,97603.94
2023-04-03T23:08:24.240Z,97608.03
2023-04-03T23:10:54.756Z,97603.84
2023-04-03T23:13:21.318Z,97600.56
2023-04-03T23:15:59.007Z,97597.59
2023-04-03T23:18:26.888Z,97606.28
2023-04-03T23:20:54.702Z,97603.59
2023-04-03T23:23:23.414Z,97592.66
2023-04-03T23:25:57.280Z,97599.53
2023-04-03T23:28:24.471Z,97599.44
2023-04-03T23:31:01.249Z,97605.25
2023-04-03T23:33:28.349Z,97602.63
2023-04-03T23:35:54.908Z,97596.47
2023-04-03T23:38:21.416Z,97599.63
2023-04-03T23:40:48.205Z,97595.19
2023-04-03T23:43:14.708Z,97579.78
2023-04-03T23:45:41.834Z,97588.22
2023-04-03T23:48:08.930Z,97582.91
2023-04-03T23:50:35.444Z,97585.19
2023-04-03T23:53:01.950Z,97592.59
2023-04-03T23:55:28.430Z,97584.75
2023-04-03T23:57:54.866Z,97582.94
